x

Columbia River Bar - 20nm West Of Columbia River Mouth (46029) Wave Buoy

8:50 - Fri 18th Aug 2017 All times are PDT. -7 hours from GMT.

  • Sig Wave height 5.2ft
  • Swell Direction
  • Peak Period 10s
  • Average Period 7s
  • Wind
    7mph, 7mph gusts
  • Sea Temp 61°f
  • Aire Temp 60°f
  • Sea Pressure 1023.2mb
  • Columbia River Bar - 20nm West Of Columbia River Mouth
  • Columbia River Bar - 20nm West Of Columbia River Mouth

More Historic Weather Station data

Upgrade to MSW Pro to gain access to the past 30 days of data for over 8000 Wavebouys and Weather Stations around the globe.

Join

Comparision Forecast

View Surf forecast
   
vie 08/18 8:50 5ft 10s 7s 7 7 mph 1023.2mb 61f 60f
7:50 5.5ft 10s 7s 11 13 mph 1022.9mb 61f 61f
6:50 5ft 10s 7s 11 13 mph 1022.7mb 61f 60f
5:50 6ft 11s 7s 9 13 mph 1022.4mb 61f 60f
4:50 6ft 11s 7s 13 18 mph 1022.4mb 61f 60f
3:50 6ft 11s 7s 16 20 mph 1022.2mb 61f 60f
2:50 6ft 11s 7s 16 20 mph 1022.1mb 61f 60f
1:50 6ft 10s 7s 16 20 mph 1022.4mb 62f 60f
12:50 6ft 11s 7s 16 20 mph 1022.6mb 62f 60f
jue 08/17 11:50 6ft 11s 7s 18 20 mph 1022.9mb 62f 61f
10:50 7ft 11s 8s 16 20 mph 1022.8mb 63f 61f
9:50 6ft 11s 8s 13 16 mph 1022.8mb 62f 61f
8:50 6ft 11s 8s 13 18 mph 1022.4mb 63f 61f
7:50 6ft 11s 8s 11 13 mph 1022.5mb 63f 61f
5:50 8ft 11s 9s 11 13 mph 1022.8mb 63f 61f
4:50 7ft 11s 8s 9 11 mph 1023.4mb 63f 61f
3:50 7.5ft 11s 9s 9 9 mph 1023.7mb 62f 61f
1:50 6.5ft 12s 8s 7 9 mph 1024.1mb 61f 61f
12:50 6ft 11s 8s 7 9 mph 1024mb 60f 60f
11:50 6ft 11s 8s 4 7 mph 1023.9mb 60f 60f
10:50 6.5ft 11s 7s 7 7 mph 1023.6mb 60f 60f
9:50 6ft 11s 7s 9 11 mph 1023.4mb 60f 60f
8:50 5.5ft 11s 7s 11 13 mph 1023.1mb 60f 60f
7:50 5.5ft 10s 7s 9 11 mph 1022.7mb 60f 60f
6:50 5ft 10s 7s 13 16 mph 1022.4mb 60f 60f
5:50 6ft 10s 7s 13 16 mph 1022mb 60f 61f
4:50 5.5ft 10s 7s 11 11 mph 1021.8mb 59f 61f
3:50 5.5ft 10s 7s 9 9 mph 1021.9mb 59f 60f
2:50 5ft 10s 7s 7 11 mph 1021.9mb 59f 60f
1:50 4.5ft 10s 7s 9 9 mph 1021.8mb 60f 60f
12:50 4.5ft 9s 7s 11 13 mph 1021.8mb 61f 61f
mié 08/16 11:50 4.5ft 9s 7s 11 13 mph 1021.6mb 61f 61f
10:50 4.5ft 10s 7s 9 9 mph 1021.5mb 61f 61f
9:50 4.5ft 10s 8s 9 11 mph 1021.5mb 62f 61f
8:50 5ft 11s 8s 9 11 mph 1021mb 62f 61f
7:50 5ft 9s 8s 9 9 mph 1020.7mb 62f 61f
6:50 5.5ft 10s 8s 9 11 mph 1020.9mb 63f 62f
5:50 5ft 10s 7s 7 7 mph 1021mb 64f 63f
4:50 6ft 9s 7s 7 7 mph 1021.3mb 64f 63f
3:50 5ft 9s 7s 4 7 mph 1021.7mb 63f 62f
2:50 5.5ft 10s 8s 2 4 mph 1022mb 63f 62f
1:50 6ft 10s 8s  -  2 mph 1022mb 61f 61f
12:50 5ft 10s 7s 4 7 mph 1021.8mb 61f 60f
11:50 5ft 10s 8s 4 7 mph 1021.5mb 61f 60f
10:50 5.5ft 10s 8s 9 9 mph 1021.2mb 60f 60f
9:50 5.5ft 10s 8s 7 7 mph 1021.1mb 60f 60f
8:50 6ft 10s 8s 4 4 mph 1020.8mb 60f 60f
7:50 5ft 10s 8s 4 7 mph 1020.2mb 60f 60f
6:50 5ft 11s 7s 7 7 mph 1020mb 60f 60f
5:50 6ft 9s 8s 7 9 mph 1019.6mb 60f 61f
4:50 6ft 10s 7s 11 13 mph 1019.5mb 60f 61f
3:50 5.5ft 10s 7s 7 9 mph 1019.4mb 60f 60f
2:50 5.5ft 10s 7s 7 9 mph 1019.2mb 60f 60f
1:50 6ft 10s 7s 11 11 mph 1019mb 60f 60f
12:50 5ft 10s 6s 11 13 mph 1018.9mb 60f 60f
mar 08/15 11:50 4.5ft 10s 6s 11 16 mph 1018.6mb 60f 60f
10:50 4.5ft 10s 6s 11 13 mph 1018.3mb 60f 60f
9:50 4ft 9s 6s 13 16 mph 1018.1mb 60f 60f
8:50 4ft 8s 5s 16 18 mph 1017.5mb 61f 60f
7:50 4ft 8s 6s 16 18 mph 1016.9mb 61f 61f
6:50 4ft 8s 5s 16 18 mph 1017mb 61f 61f
5:50 4.5ft 9s 5s 16 20 mph 1016.7mb 61f 61f
4:50 3.5ft 9s 5s 16 20 mph 1016.8mb 60f 61f
3:50 4ft 8s 5s 16 18 mph 1016.9mb 60f 60f
2:50 4.5ft 9s 5s 16 18 mph 1016.9mb 60f 60f
1:50 4.5ft 9s 5s 16 20 mph 1016.8mb 60f 59f
12:50 4.5ft 9s 6s 16 20 mph 1016.7mb 60f 59f
11:50 4.5ft 9s 5s 16 18 mph 1016.4mb 60f 59f
10:50 4.5ft 10s 5s 18 22 mph 1016.2mb 59f 59f
9:50 5ft 9s 6s 18 22 mph 1015.6mb 59f 59f
8:50 4.5ft 9s 6s 16 18 mph 1015.1mb 59f 58f
7:50 5ft 9s 6s 18 22 mph 1014.8mb 59f 58f
6:50 5ft 9s 6s 18 20 mph 1014.3mb 59f 59f
5:50 5.5ft 9s 7s 13 18 mph 1013.9mb 59f 59f
4:50 5.5ft 10s 7s 13 16 mph 1013.8mb 59f 59f
3:50 5.5ft 9s 7s 13 18 mph 1014mb 59f 59f
2:50 5.5ft 10s 7s 13 16 mph 1014.1mb 60f 59f
1:50 6ft 10s 7s 13 16 mph 1014.1mb 60f 59f
12:50 5ft 10s 7s 13 13 mph 1014.2mb 60f 59f
lun 08/14 11:50 5.5ft 10s 7s 13 16 mph 1014.3mb 60f 59f
10:50 6.5ft 10s 7s 16 16 mph 1014.1mb 60f 60f
9:50 5.5ft 10s 7s 13 16 mph 1014.1mb 60f 60f
8:50 5.5ft 11s 7s 13 18 mph 1014.3mb 60f 60f
7:50 6.5ft 10s 8s 13 16 mph 1014.3mb 61f 60f
6:50 6ft 10s 8s 13 16 mph 1014.6mb 62f 60f
5:50 6ft 10s 8s 13 16 mph 1014.9mb 62f 60f
4:50 5.5ft 11s 7s 11 13 mph 1015.2mb 63f 60f